createdAt,value
2019-05-14T00:00:52.274Z,79.49
2019-05-14T00:01:51.429Z,78.98
2019-05-14T00:02:52.080Z,78.56
2019-05-14T00:03:51.627Z,79.08
2019-05-14T00:04:51.174Z,78.98
2019-05-14T00:05:51.762Z,79.39
2019-05-14T00:06:51.946Z,79.39
2019-05-14T00:07:52.126Z,79.39
2019-05-14T00:08:52.199Z,79.19
2019-05-14T00:09:51.912Z,79.19
2019-05-14T00:10:52.053Z,79.80
2019-05-14T00:11:51.265Z,79.80
2019-05-14T00:12:51.286Z,79.80
2019-05-14T00:13:52.073Z,79.49
2019-05-14T00:14:51.623Z,80.01
2019-05-14T00:15:52.258Z,79.60
2019-05-14T00:16:51.308Z,80.01
2019-05-14T00:17:52.269Z,80.36
2019-05-14T00:18:51.186Z,80.15
2019-05-14T00:20:05.856Z,80.15
2019-05-14T00:20:51.352Z,79.74
2019-05-14T00:21:51.452Z,80.32
2019-05-14T00:22:52.153Z,80.15
2019-05-14T00:23:51.372Z,80.26
2019-05-14T00:24:51.981Z,79.94
2019-05-14T00:25:52.067Z,80.67
2019-05-14T00:26:51.707Z,81.23
2019-05-14T00:27:51.937Z,81.43
2019-05-14T00:28:51.223Z,81.43
2019-05-14T00:29:51.804Z,81.64
2019-05-14T00:30:52.324Z,81.88
2019-05-14T00:31:51.693Z,82.40
2019-05-14T00:32:52.017Z,81.74
2019-05-14T00:33:51.264Z,81.88
2019-05-14T00:34:51.563Z,81.99
2019-05-14T00:35:51.480Z,82.19
2019-05-14T00:36:52.273Z,82.60
2019-05-14T00:37:52.081Z,82.75
2019-05-14T00:38:51.292Z,83.47
2019-05-14T00:39:52.056Z,83.68
2019-05-14T00:40:51.327Z,84.65
2019-05-14T00:41:51.286Z,84.34
2019-05-14T00:42:50.101Z,84.75
2019-05-14T00:43:51.386Z,85.06
2019-05-14T00:44:55.313Z,85.58
2019-05-14T00:45:51.228Z,85.38
2019-05-14T00:46:51.597Z,85.52
2019-05-14T00:47:52.350Z,85.83
2019-05-14T00:48:51.452Z,85.83
2019-05-14T00:49:51.665Z,85.94
2019-05-14T00:50:51.609Z,86.25
2019-05-14T00:51:51.914Z,86.39
2019-05-14T00:52:51.633Z,87.01
2019-05-14T00:53:51.577Z,88.05
2019-05-14T00:54:51.990Z,87.74
2019-05-14T00:55:51.631Z,87.43
2019-05-14T00:56:51.979Z,87.53
2019-05-14T00:57:51.995Z,88.36
2019-05-14T00:58:51.929Z,87.53
2019-05-14T00:59:52.053Z,87.95
2019-05-14T01:00:52.280Z,88.57
2019-05-14T01:01:51.677Z,88.26
2019-05-14T01:02:51.722Z,87.95
2019-05-14T01:03:51.895Z,88.40
2019-05-14T01:04:51.557Z,89.34
2019-05-14T01:05:51.952Z,89.23
2019-05-14T01:06:51.153Z,89.34
2019-05-14T01:07:51.403Z,89.58
2019-05-14T01:08:51.692Z,89.69
2019-05-14T01:09:52.106Z,89.48
2019-05-14T01:10:51.243Z,90.48
2019-05-14T01:11:51.320Z,90.31
2019-05-14T01:12:51.891Z,89.79
2019-05-14T01:13:52.023Z,90.20
2019-05-14T01:14:52.870Z,90.10
2019-05-14T01:15:52.191Z,90.52
2019-05-14T01:16:51.359Z,90.77
2019-05-14T01:17:51.595Z,91.49
2019-05-14T01:18:51.342Z,91.60
2019-05-14T01:19:51.340Z,92.22
2019-05-14T01:20:51.710Z,92.43
2019-05-14T01:21:51.060Z,92.26
2019-05-14T01:22:51.591Z,92.57
2019-05-14T01:23:51.340Z,92.99
2019-05-14T01:24:52.034Z,93.10
2019-05-14T01:25:51.694Z,93.10
2019-05-14T01:26:52.082Z,92.99
2019-05-14T01:27:51.642Z,92.88
2019-05-14T01:28:51.320Z,92.47
2019-05-14T01:29:51.428Z,92.47
2019-05-14T01:30:51.622Z,92.68
2019-05-14T01:31:51.859Z,92.72
2019-05-14T01:32:51.200Z,93.24
2019-05-14T01:33:51.381Z,93.24
2019-05-14T01:34:51.959Z,93.24
2019-05-14T01:35:51.414Z,93.66
2019-05-14T01:36:49.516Z,94.22
2019-05-14T01:37:51.992Z,94.43
2019-05-14T01:38:51.308Z,94.64
2019-05-14T01:39:51.764Z,95.05
2019-05-14T01:40:49.492Z,95.57
2019-05-14T01:41:51.522Z,95.89
2019-05-14T01:42:52.037Z,96.20
2019-05-14T01:43:51.273Z,96.51
2019-05-14T01:44:51.694Z,96.82
2019-05-14T01:45:49.417Z,96.72
2019-05-14T01:46:51.217Z,96.41
2019-05-14T01:47:51.917Z,96.34
2019-05-14T01:48:49.430Z,96.45
2019-05-14T01:49:51.326Z,96.14
2019-05-14T01:50:51.816Z,96.34
2019-05-14T01:51:51.162Z,96.59
2019-05-14T01:52:51.847Z,96.70
2019-05-14T01:53:49.341Z,97.01
2019-05-14T01:54:51.334Z,97.22
2019-05-14T01:55:49.328Z,97.12
2019-05-14T01:56:51.331Z,97.22
2019-05-14T01:57:51.577Z,97.33
2019-05-14T01:58:49.304Z,97.37
2019-05-14T01:59:51.469Z,97.47
2019-05-14T02:00:49.260Z,97.16
2019-05-14T02:01:51.532Z,97.47
2019-05-14T02:02:49.263Z,97.89
2019-05-14T02:03:51.618Z,98.10
2019-05-14T02:04:51.282Z,98.20
2019-05-14T02:05:49.207Z,98.41
2019-05-14T02:06:51.364Z,98.52
2019-05-14T02:07:49.210Z,98.72
2019-05-14T02:08:51.290Z,98.83
2019-05-14T02:09:49.161Z,98.93
2019-05-14T02:10:49.159Z,99.04
2019-05-14T02:11:49.140Z,99.04
2019-05-14T02:12:51.357Z,99.04
2019-05-14T02:13:49.118Z,99.24
2019-05-14T02:14:51.110Z,99.35
2019-05-14T02:15:49.108Z,99.35
2019-05-14T02:16:51.066Z,99.45
2019-05-14T02:17:49.097Z,99.55
2019-05-14T02:18:49.213Z,99.55
2019-05-14T02:19:51.299Z,99.55
2019-05-14T02:20:49.058Z,99.55
2019-05-14T02:21:51.266Z,99.60
2019-05-14T02:22:49.087Z,99.60
2019-05-14T02:23:51.255Z,99.71
2019-05-14T02:24:49.005Z,99.71
2019-05-14T02:25:49.006Z,99.50
2019-05-14T02:26:51.262Z,99.50
2019-05-14T02:27:48.973Z,99.50
2019-05-14T02:28:51.218Z,99.33
2019-05-14T02:29:48.947Z,99.44
2019-05-14T02:30:57.484Z,99.44
2019-05-14T02:31:50.567Z,99.44
2019-05-14T02:32:49.845Z,99.65
2019-05-14T02:33:50.435Z,99.85
2019-05-14T02:34:49.923Z,99.96
2019-05-14T02:35:49.524Z,99.99
2019-05-14T02:36:49.722Z,99.99
2019-05-14T02:37:50.404Z,99.99
2019-05-14T02:38:49.538Z,99.99
2019-05-14T02:39:50.153Z,99.99
2019-05-14T02:40:49.638Z,99.99
2019-05-14T02:41:49.894Z,99.99
2019-05-14T02:42:49.698Z,99.99
2019-05-14T02:43:50.273Z,99.99
2019-05-14T02:44:49.554Z,99.99
2019-05-14T02:46:02.007Z,99.99
2019-05-14T02:46:50.590Z,99.99
2019-05-14T02:47:50.304Z,99.99
2019-05-14T02:48:49.261Z,99.99
2019-05-14T02:49:50.097Z,99.99
2019-05-14T02:50:49.645Z,99.99
2019-05-14T02:51:50.438Z,99.99
2019-05-14T02:52:49.647Z,99.99
2019-05-14T02:53:49.760Z,99.99
2019-05-14T02:54:49.620Z,99.99
2019-05-14T02:55:49.813Z,99.99
2019-05-14T02:56:49.529Z,99.99
2019-05-14T02:57:50.060Z,99.99
2019-05-14T02:58:49.912Z,99.99
2019-05-14T02:59:50.103Z,99.99
2019-05-14T03:00:49.290Z,99.99
2019-05-14T03:01:50.241Z,99.99
2019-05-14T03:02:49.375Z,99.99
2019-05-14T03:03:49.544Z,99.99
2019-05-14T03:04:49.865Z,99.99
2019-05-14T03:05:49.613Z,99.99
2019-05-14T03:06:49.856Z,99.99
2019-05-14T03:07:50.066Z,99.99
2019-05-14T03:08:49.347Z,99.99
2019-05-14T03:09:50.219Z,99.99
2019-05-14T03:10:50.322Z,99.99
2019-05-14T03:11:48.723Z,99.99
2019-05-14T03:12:50.115Z,99.99
2019-05-14T03:13:49.460Z,99.99
2019-05-14T03:14:49.897Z,99.99
2019-05-14T03:15:49.791Z,99.99
2019-05-14T03:16:49.486Z,99.99
2019-05-14T03:17:49.425Z,99.99
2019-05-14T03:18:50.226Z,99.99
2019-05-14T03:19:49.613Z,99.99
2019-05-14T03:20:50.300Z,99.99
2019-05-14T03:21:50.231Z,99.99
2019-05-14T03:23:01.697Z,99.93
2019-05-14T03:23:49.948Z,99.99
2019-05-14T03:24:50.191Z,99.99
2019-05-14T03:25:49.280Z,99.99
2019-05-14T03:26:49.941Z,99.99
2019-05-14T03:27:49.701Z,99.99
2019-05-14T03:28:49.579Z,99.99
2019-05-14T03:29:49.989Z,99.99
2019-05-14T03:30:52.623Z,99.99
2019-05-14T03:31:52.757Z,99.99
2019-05-14T03:32:52.920Z,99.99
2019-05-14T03:33:52.392Z,99.82
2019-05-14T03:34:53.174Z,99.55
2019-05-14T03:35:56.545Z,99.45
2019-05-14T03:36:52.631Z,99.55
2019-05-14T03:37:49.638Z,99.55
2019-05-14T03:38:50.206Z,99.29
2019-05-14T03:39:49.380Z,99.40
2019-05-14T03:40:49.427Z,99.60
2019-05-14T03:41:49.848Z,99.60
2019-05-14T03:42:49.003Z,99.91
2019-05-14T03:43:49.350Z,99.71
2019-05-14T03:44:49.002Z,99.85
2019-05-14T03:45:49.638Z,99.65
2019-05-14T03:46:54.833Z,99.96
2019-05-14T03:47:50.679Z,99.99
2019-05-14T03:48:49.266Z,99.99
2019-05-14T03:49:49.927Z,99.99
2019-05-14T03:50:49.557Z,99.99
2019-05-14T03:51:49.720Z,99.99
2019-05-14T03:52:49.800Z,99.99
2019-05-14T03:53:57.211Z,99.99
2019-05-14T03:54:49.917Z,99.99
2019-05-14T03:55:50.292Z,99.99
2019-05-14T03:56:49.674Z,99.99
2019-05-14T03:57:49.985Z,99.99
2019-05-14T03:58:49.531Z,99.99
2019-05-14T03:59:49.953Z,99.99
2019-05-14T04:00:50.196Z,99.99
2019-05-14T04:01:50.999Z,99.99
2019-05-14T04:02:49.061Z,99.99
2019-05-14T04:03:50.331Z,99.99
2019-05-14T04:04:50.209Z,99.99
2019-05-14T04:05:49.193Z,99.99
2019-05-14T04:06:49.696Z,99.99
2019-05-14T04:07:50.172Z,99.99
2019-05-14T04:08:49.687Z,99.99
2019-05-14T04:09:49.348Z,99.99
2019-05-14T04:10:53.426Z,99.99
2019-05-14T04:11:50.506Z,99.99
2019-05-14T04:12:49.169Z,99.99
2019-05-14T04:13:49.622Z,99.99
2019-05-14T04:14:50.233Z,99.99
2019-05-14T04:15:49.811Z,99.99
2019-05-14T04:17:03.819Z,99.99
2019-05-14T04:17:50.185Z,99.99
2019-05-14T04:18:50.492Z,99.99
2019-05-14T04:19:49.497Z,99.99
2019-05-14T04:20:50.057Z,99.99
2019-05-14T04:21:49.028Z,99.99
2019-05-14T04:22:49.979Z,99.99
2019-05-14T04:23:50.772Z,99.99
2019-05-14T04:24:49.713Z,99.99
2019-05-14T04:25:49.828Z,99.99
2019-05-14T04:27:01.762Z,99.99
2019-05-14T04:27:49.524Z,99.99
2019-05-14T04:28:49.788Z,99.99
2019-05-14T04:29:49.934Z,99.99
2019-05-14T04:30:49.323Z,99.99
2019-05-14T04:31:50.195Z,99.99
2019-05-14T04:32:50.498Z,99.99
2019-05-14T04:33:50.025Z,99.99
2019-05-14T04:34:49.835Z,99.99
2019-05-14T04:35:49.089Z,99.99
2019-05-14T04:36:50.311Z,99.99
2019-05-14T04:37:49.577Z,99.99
2019-05-14T04:38:51.452Z,99.99
2019-05-14T04:39:50.428Z,99.99
2019-05-14T04:40:49.454Z,99.99
2019-05-14T04:41:49.759Z,99.99
2019-05-14T04:42:50.296Z,99.99
2019-05-14T04:43:50.082Z,99.99
2019-05-14T04:44:50.284Z,99.99
2019-05-14T04:45:49.712Z,99.99
2019-05-14T04:46:49.431Z,99.99
2019-05-14T04:47:49.724Z,99.99
2019-05-14T04:48:50.637Z,99.99
2019-05-14T04:49:50.224Z,99.99
2019-05-14T04:50:49.690Z,99.99
2019-05-14T04:51:50.349Z,99.99
2019-05-14T04:52:49.368Z,99.99
2019-05-14T04:53:49.838Z,99.65
2019-05-14T04:54:49.985Z,99.34
2019-05-14T04:55:49.419Z,99.13
2019-05-14T04:56:50.787Z,98.68
2019-05-14T04:57:50.087Z,98.47
2019-05-14T04:58:49.677Z,98.16
2019-05-14T04:59:49.377Z,97.69
2019-05-14T05:00:49.959Z,97.28
2019-05-14T05:01:49.322Z,96.92
2019-05-14T05:02:49.705Z,96.41
2019-05-14T05:03:50.390Z,96.09
2019-05-14T05:04:50.641Z,95.68
2019-05-14T05:05:49.955Z,95.32
2019-05-14T05:06:49.903Z,94.70
2019-05-14T05:07:49.231Z,94.56
2019-05-14T05:08:49.936Z,94.24
2019-05-14T05:09:49.902Z,93.83
2019-05-14T05:10:49.520Z,93.06
2019-05-14T05:11:49.849Z,92.55
2019-05-14T05:12:49.299Z,92.55
2019-05-14T05:13:48.812Z,92.09
2019-05-14T05:14:49.256Z,91.88
2019-05-14T05:15:48.684Z,91.88
2019-05-14T05:16:49.023Z,91.67
2019-05-14T05:17:52.445Z,91.22
2019-05-14T05:18:49.016Z,91.63
2019-05-14T05:19:51.225Z,91.17
2019-05-14T05:20:50.210Z,88.51
2019-05-14T05:21:48.082Z,86.60
2019-05-14T05:22:48.553Z,84.00
2019-05-14T05:23:49.308Z,80.39
2019-05-14T05:24:48.456Z,77.71
2019-05-14T05:25:49.025Z,75.38
2019-05-14T05:26:48.516Z,73.64
2019-05-14T05:27:48.718Z,73.61
2019-05-14T05:29:01.748Z,72.72
2019-05-14T05:29:48.709Z,70.67
2019-05-14T05:30:49.094Z,71.04
2019-05-14T05:31:48.767Z,70.09
2019-05-14T05:32:49.229Z,69.38
2019-05-14T05:33:49.081Z,69.04
2019-05-14T05:34:48.256Z,69.04
2019-05-14T05:35:48.662Z,68.42
2019-05-14T05:36:48.493Z,68.90
2019-05-14T05:37:49.052Z,68.93
2019-05-14T05:38:49.120Z,68.97
2019-05-14T05:39:48.893Z,70.47
2019-05-14T05:40:48.610Z,71.56
2019-05-14T05:41:49.022Z,73.91
2019-05-14T05:42:48.995Z,75.59
2019-05-14T05:43:48.416Z,75.83
2019-05-14T05:44:48.350Z,77.41
2019-05-14T05:45:48.589Z,78.37
2019-05-14T05:46:49.149Z,78.82
2019-05-14T05:47:57.152Z,80.30
2019-05-14T05:48:48.291Z,81.47
2019-05-14T05:49:48.836Z,82.33
2019-05-14T05:50:48.464Z,82.74
2019-05-14T05:51:48.428Z,81.92
2019-05-14T05:52:49.196Z,83.05
2019-05-14T05:53:48.363Z,82.12
2019-05-14T05:54:48.799Z,82.84
2019-05-14T05:55:48.494Z,82.54
2019-05-14T05:56:48.193Z,82.43
2019-05-14T05:57:49.055Z,82.50
2019-05-14T05:58:48.972Z,81.88
2019-05-14T05:59:48.438Z,82.23
2019-05-14T06:00:49.518Z,82.19
2019-05-14T06:01:49.950Z,82.29
2019-05-14T06:02:48.848Z,81.88
2019-05-14T06:03:49.001Z,82.23
2019-05-14T06:04:48.040Z,82.50
2019-05-14T06:05:49.097Z,82.91
2019-05-14T06:06:48.253Z,83.42
2019-05-14T06:07:48.267Z,82.81
2019-05-14T06:08:48.853Z,82.95
2019-05-14T06:09:48.349Z,82.74
2019-05-14T06:10:48.904Z,82.60
2019-05-14T06:11:48.703Z,82.35
2019-05-14T06:12:48.930Z,81.84
2019-05-14T06:13:48.528Z,81.95
2019-05-14T06:14:48.553Z,82.01
2019-05-14T06:15:49.545Z,82.01
2019-05-14T06:16:48.862Z,82.35
2019-05-14T06:17:49.041Z,81.63
2019-05-14T06:18:48.313Z,82.53
2019-05-14T06:19:48.455Z,81.70
2019-05-14T06:20:49.205Z,80.36
2019-05-14T06:21:49.106Z,80.74
2019-05-14T06:22:48.777Z,81.35
2019-05-14T06:23:48.744Z,81.87
2019-05-14T06:24:48.554Z,81.15
2019-05-14T06:25:49.029Z,81.11
2019-05-14T06:26:48.787Z,80.19
2019-05-14T06:27:48.442Z,79.77
2019-05-14T06:28:48.576Z,80.25
2019-05-14T06:29:48.691Z,79.12
2019-05-14T06:30:48.386Z,79.26
2019-05-14T06:31:46.375Z,79.77
2019-05-14T06:32:48.589Z,80.43
2019-05-14T06:33:48.639Z,81.25
2019-05-14T06:34:48.644Z,81.21
2019-05-14T06:35:48.539Z,80.22
2019-05-14T06:36:48.475Z,81.15
2019-05-14T06:37:48.819Z,80.53
2019-05-14T06:38:46.272Z,80.49
2019-05-14T06:39:48.425Z,81.01
2019-05-14T06:40:48.760Z,80.49
2019-05-14T06:41:48.824Z,81.21
2019-05-14T06:42:48.430Z,81.21
2019-05-14T06:43:48.424Z,80.05
2019-05-14T06:44:46.222Z,80.15
2019-05-14T06:45:49.309Z,79.12
2019-05-14T06:46:48.440Z,79.60
2019-05-14T06:47:48.574Z,78.88
2019-05-14T06:48:48.416Z,78.88
2019-05-14T06:49:48.572Z,78.57
2019-05-14T06:50:46.184Z,78.88
2019-05-14T06:51:48.731Z,79.49
2019-05-14T06:52:46.135Z,78.98
2019-05-14T06:53:46.118Z,77.65
2019-05-14T06:54:46.134Z,79.49
2019-05-14T06:55:48.246Z,79.56
2019-05-14T06:56:46.098Z,78.43
2019-05-14T06:57:48.043Z,77.55
2019-05-14T06:58:48.775Z,79.60
2019-05-14T06:59:48.222Z,79.66
2019-05-14T07:00:46.059Z,79.87
2019-05-14T07:01:46.051Z,78.23
2019-05-14T07:02:48.889Z,79.77
2019-05-14T07:03:46.009Z,78.02
2019-05-14T07:04:48.228Z,78.33
2019-05-14T07:05:46.011Z,78.53
2019-05-14T07:06:48.244Z,77.40
2019-05-14T07:07:49.065Z,79.77
2019-05-14T07:08:48.137Z,79.36
2019-05-14T07:09:45.949Z,79.25
2019-05-14T07:10:48.380Z,78.09
2019-05-14T07:11:45.922Z,77.30
2019-05-14T07:12:45.931Z,78.12
2019-05-14T07:13:45.921Z,78.02
2019-05-14T07:14:47.976Z,77.37
2019-05-14T07:15:45.868Z,77.06
2019-05-14T07:16:48.322Z,77.17
2019-05-14T07:17:45.881Z,77.78
2019-05-14T07:18:50.652Z,76.24
2019-05-14T07:19:48.927Z,77.00
2019-05-14T07:20:48.096Z,78.39
2019-05-14T07:21:45.811Z,78.25
2019-05-14T07:22:48.177Z,77.64
2019-05-14T07:23:45.838Z,77.13
2019-05-14T07:24:45.767Z,77.44
2019-05-14T07:25:48.159Z,76.92
2019-05-14T07:26:45.749Z,76.92
2019-05-14T07:27:45.767Z,76.72
2019-05-14T07:28:48.560Z,75.90
2019-05-14T07:29:45.717Z,78.67
2019-05-14T07:30:48.330Z,77.33
2019-05-14T07:31:45.707Z,76.27
2019-05-14T07:32:48.243Z,77.20
2019-05-14T07:33:45.733Z,76.68
2019-05-14T07:34:48.026Z,76.95
2019-05-14T07:35:45.656Z,75.52
2019-05-14T07:36:45.646Z,76.14
2019-05-14T07:37:45.639Z,74.29
2019-05-14T07:38:48.678Z,75.42
2019-05-14T07:39:45.674Z,75.11
2019-05-14T07:40:45.624Z,75.11
2019-05-14T07:41:48.227Z,74.73
2019-05-14T07:42:45.588Z,76.07
2019-05-14T07:43:45.570Z,75.93
2019-05-14T07:44:45.564Z,76.14
2019-05-14T07:45:45.628Z,77.33
2019-05-14T07:46:45.578Z,76.31
2019-05-14T07:47:45.578Z,75.07
2019-05-14T07:49:00.612Z,74.66
2019-05-14T07:49:48.793Z,73.50
2019-05-14T07:50:51.254Z,75.04
2019-05-14T07:51:48.203Z,72.28
2019-05-14T07:52:45.976Z,73.50
2019-05-14T07:53:45.457Z,74.63
2019-05-14T07:54:45.449Z,74.43
2019-05-14T07:55:45.456Z,73.98
2019-05-14T07:56:45.466Z,73.47
2019-05-14T07:57:45.428Z,73.88
2019-05-14T07:58:45.406Z,73.94
2019-05-14T07:59:45.405Z,73.13
2019-05-14T08:00:45.395Z,71.59
2019-05-14T08:01:45.397Z,74.76
2019-05-14T08:02:45.369Z,73.23
2019-05-14T08:03:45.346Z,73.64
2019-05-14T08:04:45.356Z,75.68
2019-05-14T08:05:45.337Z,74.73
2019-05-14T08:06:45.321Z,73.68
2019-05-14T08:07:45.341Z,71.73
2019-05-14T08:08:45.302Z,69.96
2019-05-14T08:09:45.295Z,71.39
2019-05-14T08:10:45.275Z,72.00
2019-05-14T08:11:45.266Z,69.15
2019-05-14T08:12:45.274Z,70.17
2019-05-14T08:13:45.305Z,72.21
2019-05-14T08:15:02.474Z,69.96
2019-05-14T08:15:46.241Z,70.98
2019-05-14T08:16:45.218Z,69.73
2019-05-14T08:17:45.223Z,69.11
2019-05-14T08:18:45.209Z,70.81
2019-05-14T08:19:45.187Z,70.04
2019-05-14T08:20:45.198Z,66.77
2019-05-14T08:21:45.175Z,67.73
2019-05-14T08:22:45.158Z,68.99
2019-05-14T08:23:45.144Z,63.29
2019-05-14T08:24:45.288Z,63.97
2019-05-14T08:25:45.141Z,62.05
2019-05-14T08:26:45.106Z,59.56
2019-05-14T08:27:45.097Z,59.03
2019-05-14T08:28:45.106Z,56.82
2019-05-14T08:29:45.086Z,56.10
2019-05-14T08:30:45.070Z,56.48
2019-05-14T08:31:45.045Z,55.55
2019-05-14T08:32:45.038Z,55.22
2019-05-14T08:33:45.121Z,53.65
2019-05-14T08:34:45.020Z,54.41
2019-05-14T08:35:44.996Z,53.78
2019-05-14T08:36:45.009Z,53.34
2019-05-14T08:37:45.011Z,54.36
2019-05-14T08:38:45.555Z,53.38
2019-05-14T08:39:44.988Z,53.07
2019-05-14T08:40:44.946Z,51.66
2019-05-14T08:41:56.054Z,53.27
2019-05-14T08:42:45.926Z,52.92
2019-05-14T08:43:44.914Z,51.78
2019-05-14T08:44:47.930Z,54.03
2019-05-14T08:45:48.473Z,53.38
2019-05-14T08:46:45.370Z,50.40
2019-05-14T08:47:44.883Z,49.44
2019-05-14T08:48:44.885Z,49.35
2019-05-14T08:49:46.491Z,51.48
2019-05-14T08:50:47.965Z,51.06
2019-05-14T08:51:44.868Z,48.92
2019-05-14T08:52:44.835Z,48.82
2019-05-14T08:53:44.826Z,50.20
2019-05-14T08:54:44.805Z,48.90
2019-05-14T08:55:44.820Z,48.29
2019-05-14T08:56:44.789Z,48.69
2019-05-14T08:57:44.911Z,48.01
2019-05-14T08:58:44.767Z,49.35
2019-05-14T08:59:44.760Z,50.45
2019-05-14T09:00:44.766Z,47.69
2019-05-14T09:01:58.740Z,49.24
2019-05-14T09:02:45.715Z,52.01
2019-05-14T09:03:44.709Z,52.31
2019-05-14T09:04:44.723Z,54.63
2019-05-14T09:05:44.738Z,54.23
2019-05-14T09:06:44.710Z,51.59
2019-05-14T09:07:44.657Z,49.65
2019-05-14T09:08:44.657Z,48.95
2019-05-14T09:09:44.678Z,47.36
2019-05-14T09:10:44.639Z,47.16
2019-05-14T09:11:46.385Z,49.52
2019-05-14T09:12:45.668Z,47.11
2019-05-14T09:13:44.598Z,46.60
2019-05-14T09:14:44.600Z,50.53
2019-05-14T09:15:44.583Z,47.41
2019-05-14T09:16:47.737Z,46.96
2019-05-14T09:17:48.128Z,47.14
2019-05-14T09:18:44.561Z,47.50
2019-05-14T09:20:01.164Z,47.70
2019-05-14T09:20:45.973Z,45.39
2019-05-14T09:21:44.554Z,45.91
2019-05-14T09:22:44.511Z,46.44
2019-05-14T09:23:44.503Z,48.20
2019-05-14T09:24:44.504Z,47.80
2019-05-14T09:25:48.330Z,45.22
2019-05-14T09:26:45.481Z,45.38
2019-05-14T09:27:44.479Z,43.98
2019-05-14T09:28:44.450Z,43.88
2019-05-14T09:29:44.443Z,42.40
2019-05-14T09:30:44.419Z,45.15
2019-05-14T09:31:44.439Z,48.33
2019-05-14T09:32:44.410Z,51.23
2019-05-14T09:33:44.439Z,52.94
2019-05-14T09:34:44.393Z,50.92
2019-05-14T09:35:44.397Z,49.79
2019-05-14T09:36:44.401Z,50.31
2019-05-14T09:37:44.349Z,46.81
2019-05-14T09:38:44.394Z,46.17
2019-05-14T09:39:44.332Z,42.83
2019-05-14T09:40:44.350Z,43.58
2019-05-14T09:41:44.329Z,43.21
2019-05-14T09:42:44.317Z,42.61
2019-05-14T09:43:44.291Z,44.49
2019-05-14T09:44:44.284Z,42.54
2019-05-14T09:45:44.282Z,42.54
2019-05-14T09:46:44.310Z,44.93
2019-05-14T09:47:47.531Z,44.13
2019-05-14T09:48:45.245Z,43.14
2019-05-14T09:49:44.240Z,46.96
2019-05-14T09:50:44.222Z,44.83
2019-05-14T09:51:44.238Z,47.02
2019-05-14T09:52:44.230Z,49.51
2019-05-14T09:53:44.215Z,48.10
2019-05-14T09:54:44.270Z,47.20
2019-05-14T09:55:44.172Z,48.08
2019-05-14T09:56:44.189Z,50.78
2019-05-14T09:57:44.163Z,51.96
2019-05-14T09:58:44.155Z,52.99
2019-05-14T09:59:44.149Z,49.72
2019-05-14T10:00:44.147Z,50.02
2019-05-14T10:01:44.114Z,45.63
2019-05-14T10:02:44.138Z,46.15
2019-05-14T10:03:44.089Z,46.95
2019-05-14T10:04:44.075Z,48.07
2019-05-14T10:05:44.076Z,49.48
2019-05-14T10:06:44.058Z,53.12
2019-05-14T10:07:44.044Z,50.95
2019-05-14T10:08:44.054Z,46.77
2019-05-14T10:09:44.066Z,46.20
2019-05-14T10:10:44.015Z,45.91
2019-05-14T10:11:44.039Z,44.54
2019-05-14T10:12:52.482Z,43.82
2019-05-14T10:13:45.014Z,42.10
2019-05-14T10:14:43.970Z,43.52
2019-05-14T10:15:44.027Z,43.96
2019-05-14T10:16:43.954Z,44.31
2019-05-14T10:17:43.970Z,46.44
2019-05-14T10:18:43.925Z,46.36
2019-05-14T10:19:43.931Z,45.50
2019-05-14T10:20:46.020Z,44.74
2019-05-14T10:21:43.897Z,44.56
2019-05-14T10:22:43.906Z,43.77
2019-05-14T10:23:43.870Z,44.51
2019-05-14T10:24:43.869Z,43.68
2019-05-14T10:25:43.886Z,41.00
2019-05-14T10:26:43.866Z,41.81
2019-05-14T10:27:43.826Z,43.73
2019-05-14T10:28:43.835Z,44.33
2019-05-14T10:29:43.818Z,43.60
2019-05-14T10:30:43.812Z,43.40
2019-05-14T10:31:43.801Z,42.24
2019-05-14T10:32:43.842Z,41.25
2019-05-14T10:33:43.784Z,44.17
2019-05-14T10:34:43.759Z,42.76
2019-05-14T10:35:43.817Z,43.44
2019-05-14T10:36:43.737Z,42.19
2019-05-14T10:37:43.755Z,47.64
2019-05-14T10:38:43.756Z,46.61
2019-05-14T10:39:43.773Z,45.48
2019-05-14T10:40:43.731Z,47.09
2019-05-14T10:41:43.698Z,44.11
2019-05-14T10:42:43.679Z,45.37
2019-05-14T10:43:43.671Z,48.60
2019-05-14T10:44:43.716Z,50.01
2019-05-14T10:45:43.638Z,48.19
2019-05-14T10:46:43.659Z,46.03
2019-05-14T10:47:43.624Z,45.62
2019-05-14T10:48:43.617Z,48.39
2019-05-14T10:49:43.590Z,47.11
2019-05-14T10:50:56.077Z,46.14
2019-05-14T10:51:44.578Z,47.07
2019-05-14T10:52:43.576Z,48.24
2019-05-14T10:53:43.585Z,47.20
2019-05-14T10:54:55.441Z,48.68
2019-05-14T10:55:44.518Z,48.43
2019-05-14T10:56:43.533Z,45.68
2019-05-14T10:57:43.528Z,47.90
2019-05-14T10:58:43.520Z,45.18
2019-05-14T10:59:43.494Z,46.04
2019-05-14T11:00:43.502Z,44.02
2019-05-14T11:01:43.489Z,43.51
2019-05-14T11:02:43.464Z,42.82
2019-05-14T11:03:43.444Z,44.53
2019-05-14T11:04:43.457Z,45.00
2019-05-14T11:05:43.490Z,42.24
2019-05-14T11:06:43.423Z,43.88
2019-05-14T11:07:43.410Z,38.82
2019-05-14T11:08:43.404Z,40.39
2019-05-14T11:09:43.381Z,41.49
2019-05-14T11:10:43.385Z,43.06
2019-05-14T11:11:43.392Z,44.23
2019-05-14T11:12:43.353Z,44.67
2019-05-14T11:13:43.362Z,43.23
2019-05-14T11:14:43.333Z,46.50
2019-05-14T11:15:43.325Z,43.59
2019-05-14T11:16:43.349Z,45.61
2019-05-14T11:17:43.311Z,44.66
2019-05-14T11:18:43.322Z,44.75
2019-05-14T11:19:43.304Z,42.88
2019-05-14T11:20:43.304Z,45.22
2019-05-14T11:21:43.252Z,46.76
2019-05-14T11:22:43.295Z,44.37
2019-05-14T11:23:43.266Z,43.79
2019-05-14T11:24:43.248Z,46.01
2019-05-14T11:25:43.229Z,45.26
2019-05-14T11:26:43.216Z,45.10
2019-05-14T11:27:43.202Z,43.54
2019-05-14T11:28:43.216Z,46.34
2019-05-14T11:29:43.185Z,44.09
2019-05-14T11:30:43.198Z,44.35
2019-05-14T11:31:43.167Z,43.28
2019-05-14T11:32:43.149Z,45.65
2019-05-14T11:33:43.177Z,45.32
2019-05-14T11:34:43.130Z,44.43
2019-05-14T11:35:43.115Z,45.07
2019-05-14T11:36:43.102Z,46.77
2019-05-14T11:37:43.095Z,41.95
2019-05-14T11:38:43.086Z,40.89
2019-05-14T11:39:43.112Z,41.55
2019-05-14T11:40:43.077Z,41.41
2019-05-14T11:41:43.057Z,45.37
2019-05-14T11:42:43.036Z,42.41
2019-05-14T11:43:43.047Z,43.80
2019-05-14T11:44:43.044Z,43.46
2019-05-14T11:45:43.014Z,44.23
2019-05-14T11:46:51.401Z,45.77
2019-05-14T11:47:43.996Z,43.50
2019-05-14T11:48:42.986Z,44.49
2019-05-14T11:49:42.957Z,44.21
2019-05-14T11:50:42.979Z,45.24
2019-05-14T11:52:43.945Z,47.89
2019-05-14T11:53:42.955Z,48.44
2019-05-14T11:54:42.907Z,48.46
2019-05-14T11:55:42.915Z,47.83
2019-05-14T11:56:42.907Z,47.86
2019-05-14T11:57:42.887Z,48.90
2019-05-14T11:58:42.877Z,45.59
2019-05-14T11:59:42.895Z,46.44
2019-05-14T12:00:42.859Z,46.46
2019-05-14T12:01:42.928Z,48.67
2019-05-14T12:02:42.848Z,48.02
2019-05-14T12:03:42.859Z,46.70
2019-05-14T12:04:42.836Z,46.97
2019-05-14T12:05:42.811Z,46.06
2019-05-14T12:06:42.779Z,47.89
2019-05-14T12:07:42.792Z,44.92
2019-05-14T12:08:42.776Z,41.93
2019-05-14T12:09:42.768Z,41.29
2019-05-14T12:10:42.765Z,41.13
2019-05-14T12:11:42.749Z,44.60
2019-05-14T12:12:42.729Z,39.73
2019-05-14T12:13:42.709Z,36.92
2019-05-14T12:14:42.734Z,39.16
2019-05-14T12:15:42.688Z,39.76
2019-05-14T12:16:42.691Z,39.25
2019-05-14T12:17:42.699Z,38.72
2019-05-14T12:18:42.668Z,39.12
2019-05-14T12:19:43.790Z,39.29
2019-05-14T12:20:42.650Z,37.83
2019-05-14T12:21:58.997Z,40.39
2019-05-14T12:22:43.650Z,34.41
2019-05-14T12:23:42.631Z,39.11
2019-05-14T12:24:42.599Z,36.49
2019-05-14T12:25:42.634Z,38.59
2019-05-14T12:26:42.608Z,36.18
2019-05-14T12:27:42.609Z,37.33
2019-05-14T12:28:42.568Z,40.91
2019-05-14T12:29:42.561Z,43.94
2019-05-14T12:30:42.550Z,40.03
2019-05-14T12:31:42.584Z,43.77
2019-05-14T12:32:42.522Z,39.25
2019-05-14T12:33:42.515Z,41.05
2019-05-14T12:34:42.590Z,40.23
2019-05-14T12:35:42.522Z,41.03
2019-05-14T12:36:42.483Z,41.03
2019-05-14T12:37:42.499Z,39.87
2019-05-14T12:38:42.462Z,41.27
2019-05-14T12:39:42.477Z,41.07
2019-05-14T12:40:42.473Z,42.78
2019-05-14T12:41:42.892Z,43.59
2019-05-14T12:42:42.450Z,45.42
2019-05-14T12:43:43.940Z,43.57
2019-05-14T12:44:42.428Z,43.26
2019-05-14T12:45:42.396Z,41.17
2019-05-14T12:46:42.404Z,42.32
2019-05-14T12:47:42.380Z,41.07
2019-05-14T12:48:42.375Z,43.50
2019-05-14T12:49:42.366Z,41.41
2019-05-14T12:50:42.378Z,44.08
2019-05-14T12:51:42.799Z,38.15
2019-05-14T12:52:42.336Z,37.53
2019-05-14T12:53:42.311Z,36.35